createdAt,value
2023-02-05T00:00:44.438Z,102945.40
2023-02-05T00:03:32.389Z,102945.20
2023-02-05T00:06:00.330Z,102949.60
2023-02-05T00:08:30.568Z,102947.00
2023-02-05T00:10:58.421Z,102952.20
2023-02-05T00:13:26.267Z,102956.40
2023-02-05T00:15:54.143Z,102954.60
2023-02-05T00:18:22.081Z,102954.20
2023-02-05T00:20:50.009Z,102956.00
2023-02-05T00:23:17.823Z,102959.80
2023-02-05T00:25:45.766Z,102961.20
2023-02-05T00:28:13.664Z,102959.40
2023-02-05T00:30:42.125Z,102967.60
2023-02-05T00:33:09.966Z,102970.40
2023-02-05T00:35:37.936Z,102972.00
2023-02-05T00:38:05.981Z,102966.80
2023-02-05T00:40:33.969Z,102967.00
2023-02-05T00:43:01.887Z,102962.80
2023-02-05T00:45:35.432Z,102969.00
2023-02-05T00:48:07.345Z,102971.60
2023-02-05T00:50:36.328Z,102962.00
2023-02-05T00:53:04.512Z,102967.00
2023-02-05T00:55:32.962Z,102962.40
2023-02-05T00:58:01.488Z,102962.60
2023-02-05T01:00:29.490Z,102963.20
2023-02-05T01:02:57.410Z,102959.60
2023-02-05T01:05:25.335Z,102965.00
2023-02-05T01:07:53.251Z,102957.20
2023-02-05T01:10:21.275Z,102962.40
2023-02-05T01:12:50.730Z,102962.60
2023-02-05T01:15:20.034Z,102961.60
2023-02-05T01:17:48.461Z,102963.20
2023-02-05T01:20:16.841Z,102959.20
2023-02-05T01:22:44.778Z,102958.40
2023-02-05T01:25:12.707Z,102958.80
2023-02-05T01:27:40.903Z,102955.80
2023-02-05T01:30:12.013Z,102957.20
2023-02-05T01:32:41.044Z,102955.00
2023-02-05T01:35:09.378Z,102950.80
2023-02-05T01:37:37.217Z,102954.80
2023-02-05T01:40:06.172Z,102959.20
2023-02-05T01:42:34.372Z,102955.40
2023-02-05T01:45:29.639Z,102951.00
2023-02-05T01:48:00.788Z,102951.40
2023-02-05T01:50:42.358Z,102954.20
2023-02-05T01:53:19.802Z,102949.80
2023-02-05T01:56:04.773Z,102952.60
2023-02-05T01:58:39.550Z,102950.60
2023-02-05T02:01:08.087Z,102946.80
2023-02-05T02:03:36.635Z,102946.40
2023-02-05T02:06:05.048Z,102945.40
2023-02-05T02:08:33.817Z,102945.40
2023-02-05T02:11:06.332Z,102946.00
2023-02-05T02:13:36.619Z,102942.00
2023-02-05T02:16:07.937Z,102946.80
2023-02-05T02:18:38.948Z,102943.60
2023-02-05T02:21:56.535Z,102942.40
2023-02-05T02:24:54.615Z,102937.00
2023-02-05T02:27:37.401Z,102932.20
2023-02-05T02:30:48.361Z,102937.40
2023-02-05T02:33:39.191Z,102937.80
2023-02-05T02:36:18.167Z,102945.60
2023-02-05T02:38:57.915Z,102950.20
2023-02-05T02:41:36.267Z,102945.20
2023-02-05T02:44:24.508Z,102947.80
2023-02-05T02:46:59.208Z,102946.80
2023-02-05T02:49:53.176Z,102941.40
2023-02-05T02:52:25.356Z,102935.60
2023-02-05T02:54:59.426Z,102929.60
2023-02-05T02:57:30.086Z,102922.00
2023-02-05T03:00:03.032Z,102921.40
2023-02-05T03:02:34.920Z,102914.00
2023-02-05T03:05:11.679Z,102918.20
2023-02-05T03:08:09.155Z,102922.20
2023-02-05T03:10:48.336Z,102920.80
2023-02-05T03:13:17.389Z,102922.00
2023-02-05T03:15:46.896Z,102920.00
2023-02-05T03:18:18.355Z,102921.40
2023-02-05T03:21:00.952Z,102923.80
2023-02-05T03:23:29.931Z,102929.20
2023-02-05T03:25:57.987Z,102935.60
2023-02-05T03:28:26.040Z,102944.80
2023-02-05T03:31:23.228Z,102947.00
2023-02-05T03:34:03.846Z,102951.60
2023-02-05T03:37:16.276Z,102949.80
2023-02-05T03:40:01.238Z,102942.40
2023-02-05T03:43:04.191Z,102946.00
2023-02-05T03:45:59.678Z,102953.00
2023-02-05T03:48:33.422Z,102947.00
2023-02-05T03:51:10.597Z,102949.40
2023-02-05T03:54:18.126Z,102940.80
2023-02-05T03:57:06.001Z,102942.60
2023-02-05T03:59:37.051Z,102938.40
2023-02-05T04:02:06.273Z,102937.00
2023-02-05T04:04:34.352Z,102940.40
2023-02-05T04:07:03.672Z,102938.00
2023-02-05T04:09:31.544Z,102935.00
2023-02-05T04:11:59.495Z,102932.20
2023-02-05T04:14:27.437Z,102925.60
2023-02-05T04:16:55.340Z,102928.00
2023-02-05T04:19:23.193Z,102928.60
2023-02-05T04:21:51.144Z,102927.60
2023-02-05T04:24:19.137Z,102937.20
2023-02-05T04:26:47.269Z,102938.60
2023-02-05T04:29:15.522Z,102942.40
2023-02-05T04:31:43.521Z,102943.20
2023-02-05T04:34:11.556Z,102939.40
2023-02-05T04:36:39.628Z,102944.20
2023-02-05T04:39:07.491Z,102934.80
2023-02-05T04:41:37.728Z,102943.00
2023-02-05T04:44:06.871Z,102947.20
2023-02-05T04:46:34.875Z,102946.60
2023-02-05T04:49:02.776Z,102947.80
2023-02-05T04:51:30.587Z,102951.80
2023-02-05T04:53:58.582Z,102957.00
2023-02-05T04:56:26.805Z,102943.60
2023-02-05T04:58:55.076Z,102950.00
2023-02-05T05:01:24.489Z,102953.60
2023-02-05T05:03:52.403Z,102950.60
2023-02-05T05:06:20.388Z,102946.20
2023-02-05T05:08:48.553Z,102952.00
2023-02-05T05:11:19.612Z,102955.20
2023-02-05T05:13:49.485Z,102949.40
2023-02-05T05:16:17.431Z,102951.20
2023-02-05T05:18:45.340Z,102951.20
2023-02-05T05:21:13.463Z,102946.80
2023-02-05T05:23:41.349Z,102939.40
2023-02-05T05:26:12.615Z,102934.40
2023-02-05T05:28:40.563Z,102944.60
2023-02-05T05:31:17.369Z,102938.40
2023-02-05T05:33:45.881Z,102943.80
2023-02-05T05:36:15.012Z,102950.00
2023-02-05T05:38:43.247Z,102958.40
2023-02-05T05:41:40.968Z,102953.20
2023-02-05T05:44:11.385Z,102954.20
2023-02-05T05:46:39.483Z,102958.60
2023-02-05T05:49:07.646Z,102965.20
2023-02-05T05:51:35.501Z,102967.60
2023-02-05T05:54:03.627Z,102971.20
2023-02-05T05:56:31.470Z,102972.60
2023-02-05T05:58:59.296Z,102968.40
2023-02-05T06:01:28.524Z,102968.60
2023-02-05T06:03:56.394Z,102973.80
2023-02-05T06:06:24.389Z,102969.80
2023-02-05T06:08:52.216Z,102973.20
2023-02-05T06:11:20.396Z,102974.80
2023-02-05T06:13:48.317Z,102974.40
2023-02-05T06:16:16.288Z,102978.80
2023-02-05T06:18:44.386Z,102980.60
2023-02-05T06:21:12.247Z,102982.40
2023-02-05T06:23:40.213Z,102983.80
2023-02-05T06:26:08.385Z,102988.40
2023-02-05T06:28:36.365Z,102985.40
2023-02-05T06:31:04.673Z,102999.20
2023-02-05T06:33:32.651Z,102995.80
2023-02-05T06:36:00.740Z,103005.00
2023-02-05T06:38:28.802Z,102999.00
2023-02-05T06:40:56.667Z,103005.60
2023-02-05T06:43:24.752Z,103006.20
2023-02-05T06:45:53.383Z,102997.60
2023-02-05T06:48:22.311Z,103001.00
2023-02-05T06:50:50.428Z,103013.00
2023-02-05T06:53:18.427Z,103021.00
2023-02-05T06:55:46.473Z,103026.00
2023-02-05T06:58:14.398Z,103027.60
2023-02-05T07:00:43.356Z,103022.80
2023-02-05T07:03:11.217Z,103020.60
2023-02-05T07:05:39.254Z,103024.60
2023-02-05T07:08:07.331Z,103023.60
2023-02-05T07:10:35.399Z,103025.80
2023-02-05T07:13:05.720Z,103034.60
2023-02-05T07:15:37.655Z,103038.80
2023-02-05T07:18:06.858Z,103038.00
2023-02-05T07:20:34.902Z,103033.40
2023-02-05T07:23:02.871Z,103029.60
2023-02-05T07:25:36.488Z,103025.20
2023-02-05T07:28:07.616Z,103026.80
2023-02-05T07:30:37.546Z,103028.00
2023-02-05T07:33:05.661Z,103026.80
2023-02-05T07:35:38.093Z,103031.00
2023-02-05T07:38:06.245Z,103032.00
2023-02-05T07:40:34.224Z,103038.60
2023-02-05T07:43:02.100Z,103044.40
2023-02-05T07:45:30.007Z,103044.40
2023-02-05T07:47:57.953Z,103041.40
2023-02-05T07:50:25.841Z,103044.00
2023-02-05T07:52:53.931Z,103040.00
2023-02-05T07:55:21.848Z,103042.00
2023-02-05T07:57:49.832Z,103043.00
2023-02-05T08:00:18.108Z,103048.00
2023-02-05T08:02:46.103Z,103046.60
2023-02-05T08:05:14.226Z,103044.00
2023-02-05T08:07:42.259Z,103047.20
2023-02-05T08:10:14.029Z,103049.40
2023-02-05T08:12:42.107Z,103045.80
2023-02-05T08:15:13.257Z,103044.00
2023-02-05T08:17:41.490Z,103049.00
2023-02-05T08:20:11.030Z,103045.40
2023-02-05T08:22:41.999Z,103045.20
2023-02-05T08:25:14.445Z,103049.00
2023-02-05T08:27:44.405Z,103050.80
2023-02-05T08:30:16.504Z,103051.40
2023-02-05T08:32:49.462Z,103046.20
2023-02-05T08:35:18.115Z,103045.80
2023-02-05T08:37:46.203Z,103043.00
2023-02-05T08:40:14.202Z,103043.20
2023-02-05T08:42:42.142Z,103043.00
2023-02-05T08:45:10.542Z,103045.60
2023-02-05T08:47:38.560Z,103038.80
2023-02-05T08:50:07.498Z,103038.00
2023-02-05T08:52:35.436Z,103037.00
2023-02-05T08:55:04.623Z,103036.20
2023-02-05T08:57:32.546Z,103042.80
2023-02-05T09:00:00.535Z,103035.20
2023-02-05T09:02:31.127Z,103035.40
2023-02-05T09:05:08.537Z,103029.00
2023-02-05T09:07:39.665Z,103029.80
2023-02-05T09:10:13.171Z,103028.20
2023-02-05T09:12:41.121Z,103030.60
2023-02-05T09:15:09.948Z,103027.00
2023-02-05T09:17:37.859Z,103023.80
2023-02-05T09:20:06.232Z,103024.40
2023-02-05T09:22:34.343Z,103019.00
2023-02-05T09:25:02.393Z,103020.60
2023-02-05T09:27:31.025Z,103019.60
2023-02-05T09:29:58.944Z,103012.80
2023-02-05T09:32:26.886Z,103006.60
2023-02-05T09:34:54.895Z,103002.80
2023-02-05T09:37:22.940Z,103004.40
2023-02-05T09:43:03.431Z,102994.00
2023-02-05T09:45:59.658Z,102986.80
2023-02-05T09:48:51.711Z,102982.40
2023-02-05T09:51:35.646Z,102977.40
2023-02-05T09:54:13.519Z,102975.00
2023-02-05T09:56:44.845Z,102981.40
2023-02-05T09:59:21.631Z,102987.40
2023-02-05T10:01:56.711Z,102986.20
2023-02-05T10:04:26.301Z,102979.20
2023-02-05T10:07:12.765Z,102979.60
2023-02-05T10:10:07.535Z,102976.00
2023-02-05T10:13:06.888Z,102980.80
2023-02-05T10:15:56.444Z,102984.60
2023-02-05T10:19:05.685Z,102989.40
2023-02-05T10:22:04.066Z,102993.00
2023-02-05T10:24:31.986Z,102993.60
2023-02-05T10:27:28.329Z,102999.20
2023-02-05T10:30:19.085Z,102994.60
2023-02-05T10:33:16.705Z,102993.00
2023-02-05T10:36:02.739Z,102983.80
2023-02-05T10:38:37.055Z,102985.00
2023-02-05T10:41:22.082Z,102988.40
2023-02-05T10:44:29.087Z,102983.20
2023-02-05T10:47:29.440Z,102986.20
2023-02-05T10:50:07.842Z,102988.40
2023-02-05T10:52:35.765Z,102985.60
2023-02-05T10:55:03.979Z,102981.20
2023-02-05T10:57:35.705Z,102977.40
2023-02-05T11:00:18.572Z,102978.20
2023-02-05T11:02:58.811Z,102975.40
2023-02-05T11:05:38.814Z,102968.60
2023-02-05T11:08:44.301Z,102973.60
2023-02-05T11:11:29.474Z,102965.60
2023-02-05T11:14:07.864Z,102972.20
2023-02-05T11:16:48.659Z,102978.60
2023-02-05T11:19:27.825Z,102972.40
2023-02-05T11:22:03.496Z,102975.40
2023-02-05T11:24:41.729Z,102970.60
2023-02-05T11:27:15.841Z,102967.20
2023-02-05T11:29:44.145Z,102962.40
2023-02-05T11:32:34.306Z,102958.60
2023-02-05T11:35:28.277Z,102957.80
2023-02-05T11:38:06.919Z,102958.40
2023-02-05T11:40:36.973Z,102953.60
2023-02-05T11:43:17.472Z,102955.60
2023-02-05T11:45:52.650Z,102955.00
2023-02-05T11:48:44.119Z,102950.20
2023-02-05T11:51:16.105Z,102940.00
2023-02-05T11:53:59.919Z,102946.40
2023-02-05T11:56:28.033Z,102940.60
2023-02-05T11:59:06.598Z,102934.60
2023-02-05T12:01:36.170Z,102939.20
2023-02-05T12:04:06.774Z,102937.00
2023-02-05T12:06:55.063Z,102937.60
2023-02-05T12:09:27.456Z,102933.80
2023-02-05T12:12:21.617Z,102937.60
2023-02-05T12:15:02.688Z,102934.40
2023-02-05T12:17:41.627Z,102927.00
2023-02-05T12:20:18.086Z,102925.60
2023-02-05T12:23:15.433Z,102924.80
2023-02-05T12:26:01.386Z,102925.20
2023-02-05T12:28:50.506Z,102929.80
2023-02-05T12:31:43.442Z,102932.20
2023-02-05T12:34:24.639Z,102929.80
2023-02-05T12:37:12.763Z,102928.40
2023-02-05T12:40:01.691Z,102933.80
2023-02-05T12:42:36.647Z,102932.40
2023-02-05T12:45:52.480Z,102935.40
2023-02-05T12:48:42.241Z,102931.40
2023-02-05T12:51:36.454Z,102933.20
2023-02-05T12:54:35.319Z,102930.20
2023-02-05T12:57:14.496Z,102938.20
2023-02-05T12:59:49.721Z,102933.40
2023-02-05T13:02:57.272Z,102936.00
2023-02-05T13:05:34.846Z,102932.00
2023-02-05T13:08:19.560Z,102934.80
2023-02-05T13:10:54.722Z,102935.00
2023-02-05T13:13:33.442Z,102928.40
2023-02-05T13:16:14.451Z,102931.40
2023-02-05T13:18:53.011Z,102936.80
2023-02-05T13:21:40.226Z,102944.80
2023-02-05T13:24:49.550Z,102940.40
2023-02-05T13:27:51.271Z,102934.40
2023-02-05T13:30:30.074Z,102937.80
2023-02-05T13:33:03.110Z,102941.60
2023-02-05T13:35:44.654Z,102944.00
2023-02-05T13:38:27.139Z,102945.20
2023-02-05T13:40:58.399Z,102948.20
2023-02-05T13:43:36.048Z,102947.60
2023-02-05T13:46:32.630Z,102949.80
2023-02-05T13:49:34.608Z,102949.20
2023-02-05T13:52:25.795Z,102946.00
2023-02-05T13:55:28.929Z,102946.00
2023-02-05T13:58:50.499Z,102947.60
2023-02-05T14:01:29.250Z,102938.40
2023-02-05T14:04:03.267Z,102942.00
2023-02-05T14:06:37.812Z,102942.60
2023-02-05T14:09:10.365Z,102940.80
2023-02-05T14:11:58.899Z,102934.20
2023-02-05T14:14:31.243Z,102947.40
2023-02-05T14:17:02.668Z,102958.80
2023-02-05T14:19:46.029Z,102955.00
2023-02-05T14:22:44.607Z,102959.40
2023-02-05T14:25:46.149Z,102967.00
2023-02-05T14:28:17.090Z,102975.80
2023-02-05T14:31:05.834Z,102982.60
2023-02-05T14:33:43.482Z,102987.40
2023-02-05T14:36:17.491Z,102989.60
2023-02-05T14:38:50.990Z,102996.80
2023-02-05T14:41:31.412Z,102985.40
2023-02-05T14:44:18.430Z,102988.80
2023-02-05T14:47:27.059Z,102989.20
2023-02-05T14:50:11.233Z,102996.40
2023-02-05T14:53:05.098Z,102994.00
2023-02-05T14:55:43.958Z,102987.80
2023-02-05T14:58:33.708Z,102995.20
2023-02-05T15:01:31.451Z,102997.20
2023-02-05T15:04:03.306Z,102995.80
2023-02-05T15:06:42.197Z,102989.60
2023-02-05T15:09:24.577Z,102992.60
2023-02-05T15:12:29.296Z,103004.20
2023-02-05T15:14:59.164Z,102997.20
2023-02-05T15:17:30.159Z,102997.00
2023-02-05T15:20:06.099Z,103007.40
2023-02-05T15:23:14.713Z,103002.20
2023-02-05T15:25:53.061Z,103005.00
2023-02-05T15:28:58.156Z,103007.40
2023-02-05T15:31:47.344Z,103003.80
2023-02-05T15:34:43.112Z,103004.00
2023-02-05T15:37:40.956Z,103000.20
2023-02-05T15:40:20.421Z,102998.20
2023-02-05T15:42:58.214Z,102993.60
2023-02-05T15:45:40.571Z,102995.60
2023-02-05T15:48:11.782Z,103005.40
2023-02-05T15:50:59.907Z,103009.40
2023-02-05T15:53:39.320Z,103015.20
2023-02-05T15:56:36.302Z,103025.20
2023-02-05T15:59:10.735Z,103028.80
2023-02-05T16:01:51.084Z,103038.00
2023-02-05T16:04:29.222Z,103039.40
2023-02-05T16:06:59.930Z,103038.20
2023-02-05T16:09:31.337Z,103025.40
2023-02-05T16:12:13.114Z,103018.40
2023-02-05T16:14:41.599Z,103009.00
2023-02-05T16:17:21.490Z,103009.40
2023-02-05T16:20:15.332Z,103007.20
2023-02-05T16:22:52.783Z,103022.60
2023-02-05T16:25:42.937Z,103022.00
2023-02-05T16:28:28.450Z,103026.80
2023-02-05T16:30:58.761Z,103029.60
2023-02-05T16:33:42.671Z,103034.40
2023-02-05T16:36:25.480Z,103036.80
2023-02-05T16:39:08.100Z,103036.00
2023-02-05T16:41:42.626Z,103038.80
2023-02-05T16:44:30.727Z,103048.20
2023-02-05T16:47:18.669Z,103051.20
2023-02-05T16:49:48.641Z,103049.40
2023-02-05T16:52:27.812Z,103056.40
2023-02-05T16:54:55.796Z,103062.80
2023-02-05T16:57:32.650Z,103055.20
2023-02-05T17:00:20.635Z,103061.00
2023-02-05T17:02:55.592Z,103070.20
2023-02-05T17:05:34.864Z,103060.00
2023-02-05T17:08:14.311Z,103054.80
2023-02-05T17:10:53.895Z,103049.00
2023-02-05T17:13:46.784Z,103042.80
2023-02-05T17:16:30.187Z,103032.20
2023-02-05T17:19:05.449Z,103038.00
2023-02-05T17:21:35.971Z,103042.20
2023-02-05T17:24:12.374Z,103047.00
2023-02-05T17:26:44.114Z,103048.60
2023-02-05T17:29:16.085Z,103043.60
2023-02-05T17:31:44.207Z,103044.40
2023-02-05T17:34:14.556Z,103040.60
2023-02-05T17:36:42.598Z,103032.80
2023-02-05T17:39:10.472Z,103045.20
2023-02-05T17:41:57.951Z,103045.60
2023-02-05T17:44:25.874Z,103042.40
2023-02-05T17:46:54.531Z,103030.00
2023-02-05T17:49:22.697Z,103027.20
2023-02-05T17:51:51.182Z,103026.40
2023-02-05T17:54:25.651Z,103029.20
2023-02-05T17:56:57.460Z,103029.40
2023-02-05T17:59:26.761Z,103031.60
2023-02-05T18:01:54.836Z,103030.20
2023-02-05T18:04:22.955Z,103029.20
2023-02-05T18:06:51.413Z,103041.80
2023-02-05T18:09:20.108Z,103042.40
2023-02-05T18:11:48.060Z,103050.80
2023-02-05T18:14:16.279Z,103048.40
2023-02-05T18:16:45.052Z,103040.00
2023-02-05T18:19:13.985Z,103035.00
2023-02-05T18:21:42.059Z,103038.00
2023-02-05T18:24:10.276Z,103037.00
2023-02-05T18:26:38.421Z,103044.80
2023-02-05T18:29:06.637Z,103045.40
2023-02-05T18:31:35.422Z,103050.20
2023-02-05T18:34:03.405Z,103048.60
2023-02-05T18:36:31.442Z,103050.00
2023-02-05T18:38:59.970Z,103053.20
2023-02-05T18:41:28.745Z,103058.80
2023-02-05T18:43:57.461Z,103066.20
2023-02-05T18:46:25.982Z,103072.20
2023-02-05T18:48:55.406Z,103078.80
2023-02-05T18:51:24.504Z,103071.00
2023-02-05T18:53:55.703Z,103069.20
2023-02-05T18:56:27.468Z,103070.80
2023-02-05T18:59:03.292Z,103080.80
2023-02-05T19:01:34.887Z,103084.60
2023-02-05T19:04:07.745Z,103087.40
2023-02-05T19:06:36.317Z,103089.40
2023-02-05T19:09:04.868Z,103093.40
2023-02-05T19:11:34.202Z,103095.40
2023-02-05T19:14:05.774Z,103090.80
2023-02-05T19:16:36.050Z,103089.60
2023-02-05T19:19:05.597Z,103088.40
2023-02-05T19:21:34.660Z,103085.40
2023-02-05T19:24:09.791Z,103081.40
2023-02-05T19:26:44.191Z,103089.00
2023-02-05T19:29:16.686Z,103083.60
2023-02-05T19:31:45.564Z,103084.40
2023-02-05T19:34:14.689Z,103081.60
2023-02-05T19:36:43.261Z,103090.80
2023-02-05T19:39:16.691Z,103090.80
2023-02-05T19:41:45.870Z,103085.40
2023-02-05T19:44:13.872Z,103077.60
2023-02-05T19:46:48.889Z,103079.20
2023-02-05T19:49:20.770Z,103080.40
2023-02-05T19:51:54.487Z,103071.40
2023-02-05T19:54:23.566Z,103066.80
2023-02-05T19:56:52.020Z,103060.20
2023-02-05T19:59:21.128Z,103050.40
2023-02-05T20:01:50.105Z,103058.40
2023-02-05T20:04:24.977Z,103063.60
2023-02-05T20:06:59.800Z,103073.00
2023-02-05T20:09:28.412Z,103079.80
2023-02-05T20:11:56.516Z,103090.60
2023-02-05T20:14:25.039Z,103091.20
2023-02-05T20:16:53.638Z,103095.80
2023-02-05T20:19:22.236Z,103099.20
2023-02-05T20:21:50.635Z,103105.00
2023-02-05T20:24:18.569Z,103113.60
2023-02-05T20:26:53.124Z,103111.40
2023-02-05T20:29:40.035Z,103112.60
2023-02-05T20:32:09.007Z,103108.80
2023-02-05T20:34:39.643Z,103108.40
2023-02-05T20:37:09.579Z,103098.40
2023-02-05T20:39:42.068Z,103092.00
2023-02-05T20:42:16.473Z,103097.60
2023-02-05T20:44:44.842Z,103088.40
2023-02-05T20:47:14.852Z,103077.80
2023-02-05T20:49:43.195Z,103079.00
2023-02-05T20:52:13.965Z,103080.20
2023-02-05T20:54:42.202Z,103075.80
2023-02-05T20:57:10.396Z,103085.80
2023-02-05T20:59:38.892Z,103092.60
2023-02-05T21:02:07.506Z,103084.60
2023-02-05T21:04:37.081Z,103074.60
2023-02-05T21:07:05.646Z,103074.80
2023-02-05T21:09:33.746Z,103078.00
2023-02-05T21:12:02.094Z,103082.60
2023-02-05T21:14:30.449Z,103078.20
2023-02-05T21:17:00.260Z,103077.60
2023-02-05T21:19:28.364Z,103077.20
2023-02-05T21:21:56.432Z,103079.80
2023-02-05T21:24:24.578Z,103072.80
2023-02-05T21:26:52.523Z,103073.20
2023-02-05T21:29:21.649Z,103073.80
2023-02-05T21:31:55.596Z,103080.60
2023-02-05T21:34:27.992Z,103092.20
2023-02-05T21:36:57.261Z,103098.00
2023-02-05T21:39:28.597Z,103110.20
2023-02-05T21:41:57.145Z,103122.60
2023-02-05T21:44:27.777Z,103125.60
2023-02-05T21:46:56.272Z,103122.00
2023-02-05T21:49:24.860Z,103134.80
2023-02-05T21:51:53.454Z,103136.40
2023-02-05T21:54:25.659Z,103148.80
2023-02-05T21:56:54.483Z,103148.40
2023-02-05T21:59:22.661Z,103152.60
2023-02-05T22:01:51.204Z,103141.40
2023-02-05T22:04:19.436Z,103126.60
2023-02-05T22:06:47.547Z,103137.60
2023-02-05T22:09:16.893Z,103143.20
2023-02-05T22:11:49.132Z,103150.80
2023-02-05T22:14:17.614Z,103144.20
2023-02-05T22:16:45.974Z,103142.60
2023-02-05T22:19:14.057Z,103146.60
2023-02-05T22:21:43.238Z,103144.80
2023-02-05T22:24:16.666Z,103143.20
2023-02-05T22:26:46.727Z,103147.60
2023-02-05T22:29:20.420Z,103151.40
2023-02-05T22:31:54.227Z,103157.20
2023-02-05T22:34:22.655Z,103153.60
2023-02-05T22:36:50.583Z,103148.00
2023-02-05T22:39:18.632Z,103143.20
2023-02-05T22:41:46.693Z,103137.20
2023-02-05T22:44:14.542Z,103137.40
2023-02-05T22:46:44.656Z,103135.20
2023-02-05T22:49:16.800Z,103133.00
2023-02-05T22:51:46.343Z,103125.00
2023-02-05T22:54:15.384Z,103128.00
2023-02-05T22:56:43.906Z,103123.00
2023-02-05T22:59:12.594Z,103123.60
2023-02-05T23:01:40.715Z,103122.20
2023-02-05T23:04:09.704Z,103120.40
2023-02-05T23:06:42.132Z,103113.00
2023-02-05T23:09:17.891Z,103113.80
2023-02-05T23:11:46.755Z,103105.60
2023-02-05T23:14:17.366Z,103095.00
2023-02-05T23:16:47.433Z,103094.60
2023-02-05T23:19:22.469Z,103088.60
2023-02-05T23:21:50.469Z,103083.80
2023-02-05T23:24:19.376Z,103090.80
2023-02-05T23:26:50.948Z,103088.60
2023-02-05T23:29:20.234Z,103082.80
2023-02-05T23:31:48.150Z,103086.80
2023-02-05T23:34:16.059Z,103090.00
2023-02-05T23:36:43.968Z,103089.40
2023-02-05T23:39:11.884Z,103085.60
2023-02-05T23:41:40.149Z,103083.60
2023-02-05T23:44:18.300Z,103088.00
2023-02-05T23:46:49.130Z,103082.40
2023-02-05T23:49:23.236Z,103082.60
2023-02-05T23:51:54.833Z,103078.20
2023-02-05T23:54:24.184Z,103073.80
2023-02-05T23:56:52.349Z,103073.20
2023-02-05T23:59:20.228Z,103069.20
